createdAt,value
2023-03-22T00:01:46.236Z,99.90
2023-03-22T00:04:28.467Z,99.90
2023-03-22T00:07:11.001Z,99.90
2023-03-22T00:09:53.211Z,99.90
2023-03-22T00:12:35.602Z,99.90
2023-03-22T00:15:17.878Z,99.90
2023-03-22T00:18:02.132Z,99.90
2023-03-22T00:20:52.815Z,99.90
2023-03-22T00:23:35.237Z,99.90
2023-03-22T00:26:17.410Z,99.90
2023-03-22T00:28:59.947Z,99.90
2023-03-22T00:31:43.012Z,99.90
2023-03-22T00:34:27.112Z,99.90
2023-03-22T00:37:09.493Z,99.90
2023-03-22T00:39:52.024Z,99.90
2023-03-22T00:42:34.897Z,99.90
2023-03-22T00:45:17.386Z,99.90
2023-03-22T00:47:59.711Z,99.90
2023-03-22T00:50:42.104Z,99.90
2023-03-22T00:53:24.677Z,99.90
2023-03-22T00:56:07.798Z,99.90
2023-03-22T00:59:00.374Z,99.90
2023-03-22T01:01:43.764Z,99.90
2023-03-22T01:04:26.351Z,99.90
2023-03-22T01:07:09.156Z,99.90
2023-03-22T01:09:52.517Z,99.90
2023-03-22T01:12:34.956Z,99.90
2023-03-22T01:15:17.232Z,99.90
2023-03-22T01:17:59.928Z,99.90
2023-03-22T01:20:42.306Z,99.90
2023-03-22T01:23:24.824Z,99.90
2023-03-22T01:26:07.352Z,99.90
2023-03-22T01:28:49.778Z,99.90
2023-03-22T01:31:32.029Z,99.90
2023-03-22T01:34:14.513Z,99.90
2023-03-22T01:36:57.480Z,99.90
2023-03-22T01:39:40.323Z,99.90
2023-03-22T01:42:25.794Z,99.90
2023-03-22T01:45:16.814Z,99.90
2023-03-22T01:48:03.569Z,99.90
2023-03-22T01:51:03.278Z,99.90
2023-03-22T01:54:01.473Z,99.90
2023-03-22T01:56:44.846Z,99.90
2023-03-22T01:59:36.608Z,99.90
2023-03-22T02:02:30.986Z,99.90
2023-03-22T02:05:25.345Z,99.90
2023-03-22T02:08:14.923Z,99.90
2023-03-22T02:11:16.572Z,99.90
2023-03-22T02:14:23.525Z,99.90
2023-03-22T02:17:42.241Z,99.90
2023-03-22T02:20:42.254Z,99.90
2023-03-22T02:24:18.766Z,99.90
2023-03-22T02:27:22.502Z,99.90
2023-03-22T02:30:06.329Z,99.90
2023-03-22T02:33:15.338Z,99.90
2023-03-22T02:36:14.451Z,99.90
2023-03-22T02:39:32.265Z,99.90
2023-03-22T02:42:20.176Z,99.90
2023-03-22T02:45:16.811Z,99.90
2023-03-22T02:48:11.744Z,99.90
2023-03-22T02:50:59.427Z,99.90
2023-03-22T02:53:53.824Z,99.90
2023-03-22T02:56:55.635Z,99.90
2023-03-22T02:59:41.834Z,99.90
2023-03-22T03:02:27.598Z,99.90
2023-03-22T03:05:11.620Z,99.90
2023-03-22T03:08:01.266Z,99.90
2023-03-22T03:10:45.666Z,99.90
2023-03-22T03:13:28.124Z,99.90
2023-03-22T03:16:17.688Z,99.90
2023-03-22T03:19:12.188Z,99.90
2023-03-22T03:22:12.075Z,99.90
2023-03-22T03:25:18.304Z,99.90
2023-03-22T03:28:23.069Z,99.90
2023-03-22T03:31:29.368Z,99.90
2023-03-22T03:34:28.470Z,99.90
2023-03-22T03:37:19.907Z,99.90
2023-03-22T03:40:11.471Z,99.90
2023-03-22T03:42:56.292Z,99.90
2023-03-22T03:45:40.308Z,99.90
2023-03-22T03:48:31.461Z,99.90
2023-03-22T03:51:13.902Z,99.90
2023-03-22T03:53:56.452Z,99.90
2023-03-22T03:56:38.859Z,99.90
2023-03-22T03:59:21.321Z,99.90
2023-03-22T04:02:06.113Z,99.90
2023-03-22T04:04:49.376Z,99.90
2023-03-22T04:07:35.304Z,99.90
2023-03-22T04:10:17.986Z,99.90
2023-03-22T04:13:00.430Z,99.90
2023-03-22T04:15:43.187Z,99.90
2023-03-22T04:18:30.132Z,99.90
2023-03-22T04:21:16.638Z,99.90
2023-03-22T04:24:09.426Z,99.90
2023-03-22T04:26:55.963Z,99.90
2023-03-22T04:29:48.448Z,99.90
2023-03-22T04:32:50.337Z,99.90
2023-03-22T04:35:37.205Z,99.90
2023-03-22T04:38:20.103Z,99.90
2023-03-22T04:41:03.161Z,99.90
2023-03-22T04:43:54.781Z,99.90
2023-03-22T04:46:37.641Z,99.90
2023-03-22T04:49:22.072Z,99.90
2023-03-22T04:52:04.406Z,99.90
2023-03-22T04:54:53.085Z,99.90
2023-03-22T04:57:35.852Z,99.90
2023-03-22T05:00:19.049Z,99.90
2023-03-22T05:03:04.198Z,99.90
2023-03-22T05:05:58.332Z,99.90
2023-03-22T05:08:46.070Z,99.90
2023-03-22T05:11:29.067Z,99.90
2023-03-22T05:14:31.527Z,99.90
2023-03-22T05:17:14.349Z,99.90
2023-03-22T05:19:56.677Z,99.90
2023-03-22T05:22:40.924Z,99.90
2023-03-22T05:25:25.400Z,99.90
2023-03-22T05:28:08.665Z,99.90
2023-03-22T05:30:57.544Z,99.90
2023-03-22T05:33:52.405Z,99.90
2023-03-22T05:36:38.865Z,99.90
2023-03-22T05:39:50.488Z,99.90
2023-03-22T05:42:33.067Z,99.90
2023-03-22T05:45:19.462Z,99.90
2023-03-22T05:48:08.012Z,99.90
2023-03-22T05:50:51.446Z,99.90
2023-03-22T05:53:34.770Z,99.90
2023-03-22T05:56:25.844Z,99.90
2023-03-22T05:59:16.582Z,99.90
2023-03-22T06:01:59.610Z,99.90
2023-03-22T06:04:42.909Z,99.90
2023-03-22T06:07:31.620Z,99.90
2023-03-22T06:10:27.033Z,99.90
2023-03-22T06:13:09.832Z,99.90
2023-03-22T06:15:52.684Z,99.90
2023-03-22T06:18:38.623Z,99.90
2023-03-22T06:21:25.723Z,99.90
2023-03-22T06:24:08.634Z,99.90
2023-03-22T06:26:51.162Z,99.90
2023-03-22T06:29:33.794Z,99.90
2023-03-22T06:32:19.234Z,99.90
2023-03-22T06:35:02.721Z,99.90
2023-03-22T06:37:45.183Z,99.90
2023-03-22T06:40:28.139Z,99.90
2023-03-22T06:43:10.557Z,99.90
2023-03-22T06:45:57.468Z,99.90
2023-03-22T06:48:46.496Z,99.90
2023-03-22T06:51:31.882Z,99.90
2023-03-22T06:54:14.873Z,99.90
2023-03-22T06:56:57.387Z,99.90
2023-03-22T06:59:39.671Z,99.90
2023-03-22T07:02:22.130Z,99.90
2023-03-22T07:05:27.962Z,99.90
2023-03-22T07:08:10.790Z,99.90
2023-03-22T07:10:57.849Z,99.90
2023-03-22T07:13:40.759Z,99.90
2023-03-22T07:16:27.750Z,99.90
2023-03-22T07:19:17.397Z,99.90
2023-03-22T07:21:59.841Z,99.90
2023-03-22T07:24:55.817Z,99.90
2023-03-22T07:27:40.647Z,99.90
2023-03-22T07:30:23.466Z,99.90
2023-03-22T07:33:08.368Z,99.90
2023-03-22T07:35:51.030Z,99.90
2023-03-22T07:38:33.368Z,99.90
2023-03-22T07:41:16.029Z,99.90
2023-03-22T07:44:18.015Z,99.90
2023-03-22T07:47:39.615Z,99.90
2023-03-22T07:50:43.339Z,99.90
2023-03-22T07:53:26.593Z,99.90
2023-03-22T07:56:09.370Z,99.90
2023-03-22T07:58:51.815Z,99.90
2023-03-22T08:01:34.203Z,99.90
2023-03-22T08:04:34.851Z,99.90
2023-03-22T08:07:27.110Z,99.90
2023-03-22T08:10:09.835Z,99.90
2023-03-22T08:12:52.283Z,99.90
2023-03-22T08:15:39.437Z,99.90
2023-03-22T08:18:22.092Z,99.90
2023-03-22T08:21:05.779Z,99.90
2023-03-22T08:23:50.524Z,68.70
2023-03-22T08:26:49.764Z,39.10
2023-03-22T08:29:49.155Z,21.90
2023-03-22T08:32:33.813Z,4.10
2023-03-22T08:35:16.371Z,6.60
2023-03-22T08:37:58.901Z,1.00
2023-03-22T08:40:49.859Z,1.00
2023-03-22T08:43:37.263Z,1.00
2023-03-22T08:46:19.702Z,1.00
2023-03-22T08:49:03.448Z,1.00
2023-03-22T08:51:50.871Z,1.00
2023-03-22T08:54:53.521Z,1.00
2023-03-22T08:57:58.814Z,1.00
2023-03-22T09:00:52.255Z,1.00
2023-03-22T09:03:41.982Z,1.00
2023-03-22T09:06:28.194Z,1.00
2023-03-22T09:09:10.619Z,1.00
2023-03-22T09:11:53.480Z,1.00
2023-03-22T09:14:36.502Z,1.00
2023-03-22T09:17:22.421Z,99.90
2023-03-22T09:20:12.860Z,15.10
2023-03-22T09:22:58.123Z,99.90
2023-03-22T09:25:43.757Z,99.90
2023-03-22T09:28:26.680Z,99.90
2023-03-22T09:31:12.570Z,99.90
2023-03-22T09:33:57.140Z,25.60
2023-03-22T09:36:39.419Z,1.00
2023-03-22T09:39:22.419Z,1.00
2023-03-22T09:42:15.783Z,1.00
2023-03-22T09:44:59.287Z,1.00
2023-03-22T09:47:53.620Z,1.00
2023-03-22T09:50:43.964Z,99.90
2023-03-22T09:53:28.698Z,99.90
2023-03-22T09:56:23.208Z,99.90
2023-03-22T09:59:44.143Z,1.00
2023-03-22T10:02:57.951Z,1.00
2023-03-22T10:05:55.629Z,1.00
2023-03-22T10:09:11.717Z,99.90
2023-03-22T10:12:09.052Z,99.90
2023-03-22T10:15:03.327Z,99.90
2023-03-22T10:17:54.297Z,99.90
2023-03-22T10:20:45.425Z,99.90
2023-03-22T10:23:52.466Z,99.90
2023-03-22T10:26:38.528Z,99.90
2023-03-22T10:29:29.312Z,99.90
2023-03-22T10:32:19.879Z,3.40
2023-03-22T10:35:02.347Z,16.50
2023-03-22T10:37:48.496Z,99.90
2023-03-22T10:40:34.125Z,55.70
2023-03-22T10:43:35.278Z,91.90
2023-03-22T10:46:24.013Z,1.00
2023-03-22T10:49:07.972Z,99.90
2023-03-22T10:51:54.582Z,99.90
2023-03-22T10:54:37.303Z,99.90
2023-03-22T10:57:19.564Z,99.90
2023-03-22T11:00:08.630Z,99.90
2023-03-22T11:02:58.553Z,99.90
2023-03-22T11:05:41.306Z,99.90
2023-03-22T11:08:23.713Z,99.90
2023-03-22T11:11:14.189Z,99.90
2023-03-22T11:13:59.363Z,99.90
2023-03-22T11:16:45.077Z,91.60
2023-03-22T11:19:41.151Z,78.30
2023-03-22T11:22:44.208Z,22.60
2023-03-22T11:25:38.271Z,60.50
2023-03-22T11:28:26.392Z,1.00
2023-03-22T11:31:16.106Z,1.00
2023-03-22T11:34:01.036Z,1.00
2023-03-22T11:36:52.793Z,1.00
2023-03-22T11:39:35.288Z,1.00
2023-03-22T11:42:21.855Z,1.00
2023-03-22T11:45:04.826Z,1.00
2023-03-22T11:47:47.539Z,1.00
2023-03-22T11:50:34.477Z,1.00
2023-03-22T11:53:26.354Z,1.00
2023-03-22T11:56:17.108Z,99.90
2023-03-22T11:59:23.746Z,99.90
2023-03-22T12:02:18.541Z,1.00
2023-03-22T12:05:18.658Z,99.90
2023-03-22T12:08:06.847Z,99.90
2023-03-22T12:10:55.289Z,99.90
2023-03-22T12:13:54.587Z,1.00
2023-03-22T12:16:47.506Z,99.90
2023-03-22T12:19:50.246Z,99.90
2023-03-22T12:22:35.291Z,1.00
2023-03-22T12:25:32.188Z,1.00
2023-03-22T12:28:19.711Z,99.90
2023-03-22T12:31:03.797Z,99.90
2023-03-22T12:33:50.408Z,99.90
2023-03-22T12:36:42.983Z,99.90
2023-03-22T12:39:51.441Z,99.90
2023-03-22T12:42:52.306Z,99.90
2023-03-22T12:45:41.576Z,99.90
2023-03-22T12:48:45.147Z,99.90
2023-03-22T12:51:28.703Z,99.90
2023-03-22T12:54:14.010Z,99.90
2023-03-22T12:56:56.635Z,99.90
2023-03-22T12:59:44.270Z,99.90
2023-03-22T13:02:34.766Z,99.90
2023-03-22T13:05:18.740Z,99.90
2023-03-22T13:08:04.103Z,99.90
2023-03-22T13:11:03.400Z,99.90
2023-03-22T13:13:47.413Z,99.90
2023-03-22T13:16:55.945Z,99.90
2023-03-22T13:19:38.713Z,99.90
2023-03-22T13:22:27.114Z,99.90
2023-03-22T13:25:19.141Z,99.90
2023-03-22T13:28:21.840Z,99.90
2023-03-22T13:31:05.541Z,99.90
2023-03-22T13:33:53.781Z,99.90
2023-03-22T13:36:37.469Z,99.90
2023-03-22T13:39:25.310Z,99.90
2023-03-22T13:42:38.318Z,99.90
2023-03-22T13:45:33.791Z,99.90
2023-03-22T13:48:48.841Z,99.90
2023-03-22T13:51:33.412Z,99.90
2023-03-22T13:54:18.815Z,99.90
2023-03-22T13:57:01.720Z,99.90
2023-03-22T14:00:14.843Z,99.90
2023-03-22T14:03:02.263Z,99.90
2023-03-22T14:05:47.418Z,99.90
2023-03-22T14:08:32.102Z,99.90
2023-03-22T14:11:33.179Z,99.90
2023-03-22T14:14:24.743Z,99.90
2023-03-22T14:17:31.773Z,99.90
2023-03-22T14:20:19.752Z,99.90
